sensor_id;sensor_type;location;lat;lon;timestamp;P1;durP1;ratioP1;P2;durP2;ratioP2
12774;SDS011;6451;42.630;23.382;2023-07-13T00:02:22;6.20;;;4.07;;
12774;SDS011;6451;42.630;23.382;2023-07-13T00:04:48;7.30;;;4.07;;
12774;SDS011;6451;42.630;23.382;2023-07-13T00:07:16;6.45;;;4.10;;
12774;SDS011;6451;42.630;23.382;2023-07-13T00:09:51;7.22;;;4.40;;
12774;SDS011;6451;42.630;23.382;2023-07-13T00:12:22;4.40;;;3.97;;
12774;SDS011;6451;42.630;23.382;2023-07-13T00:14:51;5.18;;;3.70;;
12774;SDS011;6451;42.630;23.382;2023-07-13T00:17:19;6.80;;;3.70;;
12774;SDS011;6451;42.630;23.382;2023-07-13T00:19:46;6.88;;;3.90;;
12774;SDS011;6451;42.630;23.382;2023-07-13T00:22:13;8.07;;;4.00;;
12774;SDS011;6451;42.630;23.382;2023-07-13T00:24:47;5.07;;;3.72;;
12774;SDS011;6451;42.630;23.382;2023-07-13T00:27:25;7.15;;;3.80;;
12774;SDS011;6451;42.630;23.382;2023-07-13T00:29:52;5.05;;;4.38;;
12774;SDS011;6451;42.630;23.382;2023-07-13T00:32:20;5.65;;;4.70;;
12774;SDS011;6451;42.630;23.382;2023-07-13T00:34:47;5.45;;;4.47;;
12774;SDS011;6451;42.630;23.382;2023-07-13T00:37:14;5.07;;;4.57;;
12774;SDS011;6451;42.630;23.382;2023-07-13T00:39:41;5.38;;;4.18;;
12774;SDS011;6451;42.630;23.382;2023-07-13T00:42:08;6.10;;;4.47;;
12774;SDS011;6451;42.630;23.382;2023-07-13T00:44:36;8.15;;;4.72;;
12774;SDS011;6451;42.630;23.382;2023-07-13T00:47:04;6.63;;;4.63;;
12774;SDS011;6451;42.630;23.382;2023-07-13T00:49:34;6.18;;;4.68;;
12774;SDS011;6451;42.630;23.382;2023-07-13T00:52:04;6.03;;;4.35;;
12774;SDS011;6451;42.630;23.382;2023-07-13T00:54:33;5.57;;;4.28;;
12774;SDS011;6451;42.630;23.382;2023-07-13T00:57:04;5.78;;;4.50;;
12774;SDS011;6451;42.630;23.382;2023-07-13T00:59:33;5.03;;;4.50;;
12774;SDS011;6451;42.630;23.382;2023-07-13T01:02:02;5.22;;;4.63;;
12774;SDS011;6451;42.630;23.382;2023-07-13T01:04:29;6.28;;;4.82;;
12774;SDS011;6451;42.630;23.382;2023-07-13T01:06:57;5.32;;;4.38;;
12774;SDS011;6451;42.630;23.382;2023-07-13T01:09:25;6.97;;;4.07;;
12774;SDS011;6451;42.630;23.382;2023-07-13T01:11:53;5.00;;;4.00;;
12774;SDS011;6451;42.630;23.382;2023-07-13T01:14:20;5.25;;;4.57;;
12774;SDS011;6451;42.630;23.382;2023-07-13T01:16:47;5.25;;;4.35;;
12774;SDS011;6451;42.630;23.382;2023-07-13T01:19:18;5.80;;;4.20;;
12774;SDS011;6451;42.630;23.382;2023-07-13T01:22:02;5.60;;;4.50;;
12774;SDS011;6451;42.630;23.382;2023-07-13T01:24:35;4.80;;;4.22;;
12774;SDS011;6451;42.630;23.382;2023-07-13T01:27:02;8.10;;;4.60;;
12774;SDS011;6451;42.630;23.382;2023-07-13T01:29:31;5.45;;;4.40;;
12774;SDS011;6451;42.630;23.382;2023-07-13T01:31:59;4.97;;;4.47;;
12774;SDS011;6451;42.630;23.382;2023-07-13T01:34:26;5.72;;;4.78;;
12774;SDS011;6451;42.630;23.382;2023-07-13T01:36:54;9.85;;;5.10;;
12774;SDS011;6451;42.630;23.382;2023-07-13T01:39:23;6.82;;;4.78;;
12774;SDS011;6451;42.630;23.382;2023-07-13T01:41:50;9.65;;;5.00;;
12774;SDS011;6451;42.630;23.382;2023-07-13T01:44:16;5.72;;;5.13;;
12774;SDS011;6451;42.630;23.382;2023-07-13T01:46:44;4.93;;;4.32;;
12774;SDS011;6451;42.630;23.382;2023-07-13T01:49:11;5.85;;;4.68;;
12774;SDS011;6451;42.630;23.382;2023-07-13T01:51:38;7.05;;;4.70;;
12774;SDS011;6451;42.630;23.382;2023-07-13T01:54:05;6.70;;;5.35;;
12774;SDS011;6451;42.630;23.382;2023-07-13T01:56:33;5.80;;;5.20;;
12774;SDS011;6451;42.630;23.382;2023-07-13T01:59:00;5.50;;;5.00;;
12774;SDS011;6451;42.630;23.382;2023-07-13T02:01:27;5.93;;;4.75;;
12774;SDS011;6451;42.630;23.382;2023-07-13T02:03:54;5.10;;;4.70;;
12774;SDS011;6451;42.630;23.382;2023-07-13T02:06:20;5.25;;;4.82;;
12774;SDS011;6451;42.630;23.382;2023-07-13T02:08:47;7.28;;;4.95;;
12774;SDS011;6451;42.630;23.382;2023-07-13T02:11:14;6.22;;;5.25;;
12774;SDS011;6451;42.630;23.382;2023-07-13T02:13:42;5.95;;;5.35;;
12774;SDS011;6451;42.630;23.382;2023-07-13T02:16:09;6.75;;;5.10;;
12774;SDS011;6451;42.630;23.382;2023-07-13T02:18:36;5.90;;;5.35;;
12774;SDS011;6451;42.630;23.382;2023-07-13T02:21:03;6.63;;;5.10;;
12774;SDS011;6451;42.630;23.382;2023-07-13T02:23:30;6.50;;;4.65;;
12774;SDS011;6451;42.630;23.382;2023-07-13T02:25:58;5.90;;;4.72;;
12774;SDS011;6451;42.630;23.382;2023-07-13T02:28:25;7.10;;;5.18;;
12774;SDS011;6451;42.630;23.382;2023-07-13T02:30:53;5.85;;;5.10;;
12774;SDS011;6451;42.630;23.382;2023-07-13T02:33:20;5.93;;;5.22;;
12774;SDS011;6451;42.630;23.382;2023-07-13T02:35:47;5.82;;;5.25;;
12774;SDS011;6451;42.630;23.382;2023-07-13T02:38:14;5.82;;;5.22;;
12774;SDS011;6451;42.630;23.382;2023-07-13T02:40:41;5.93;;;5.18;;
12774;SDS011;6451;42.630;23.382;2023-07-13T02:43:08;5.47;;;4.70;;
12774;SDS011;6451;42.630;23.382;2023-07-13T02:45:35;7.10;;;4.72;;
12774;SDS011;6451;42.630;23.382;2023-07-13T02:48:03;6.63;;;5.38;;
12774;SDS011;6451;42.630;23.382;2023-07-13T02:50:30;7.72;;;5.30;;
12774;SDS011;6451;42.630;23.382;2023-07-13T02:52:57;7.10;;;5.35;;
12774;SDS011;6451;42.630;23.382;2023-07-13T02:55:24;5.18;;;4.68;;
12774;SDS011;6451;42.630;23.382;2023-07-13T02:57:51;7.30;;;5.03;;
12774;SDS011;6451;42.630;23.382;2023-07-13T03:00:19;6.07;;;5.15;;
12774;SDS011;6451;42.630;23.382;2023-07-13T03:02:46;5.75;;;5.18;;
12774;SDS011;6451;42.630;23.382;2023-07-13T03:05:15;5.30;;;4.60;;
12774;SDS011;6451;42.630;23.382;2023-07-13T03:07:43;5.55;;;5.05;;
12774;SDS011;6451;42.630;23.382;2023-07-13T03:10:10;6.00;;;5.40;;
12774;SDS011;6451;42.630;23.382;2023-07-13T03:12:37;6.07;;;5.22;;
12774;SDS011;6451;42.630;23.382;2023-07-13T03:15:04;6.13;;;5.22;;
12774;SDS011;6451;42.630;23.382;2023-07-13T03:17:32;6.22;;;5.45;;
12774;SDS011;6451;42.630;23.382;2023-07-13T03:19:58;6.82;;;5.20;;
12774;SDS011;6451;42.630;23.382;2023-07-13T03:22:27;6.32;;;5.70;;
12774;SDS011;6451;42.630;23.382;2023-07-13T03:24:54;6.40;;;5.80;;
12774;SDS011;6451;42.630;23.382;2023-07-13T03:27:21;5.78;;;5.28;;
12774;SDS011;6451;42.630;23.382;2023-07-13T03:29:48;8.27;;;5.88;;
12774;SDS011;6451;42.630;23.382;2023-07-13T03:32:15;8.20;;;5.68;;
12774;SDS011;6451;42.630;23.382;2023-07-13T03:34:42;6.32;;;5.75;;
12774;SDS011;6451;42.630;23.382;2023-07-13T03:37:10;7.43;;;5.53;;
12774;SDS011;6451;42.630;23.382;2023-07-13T03:39:38;7.20;;;5.60;;
12774;SDS011;6451;42.630;23.382;2023-07-13T03:42:05;6.55;;;5.50;;
12774;SDS011;6451;42.630;23.382;2023-07-13T03:44:33;7.13;;;5.45;;
12774;SDS011;6451;42.630;23.382;2023-07-13T03:47:00;7.72;;;5.57;;
12774;SDS011;6451;42.630;23.382;2023-07-13T03:49:26;6.97;;;5.80;;
12774;SDS011;6451;42.630;23.382;2023-07-13T03:51:53;7.82;;;5.90;;
12774;SDS011;6451;42.630;23.382;2023-07-13T03:54:20;6.45;;;5.75;;
12774;SDS011;6451;42.630;23.382;2023-07-13T03:56:48;6.25;;;5.40;;
12774;SDS011;6451;42.630;23.382;2023-07-13T03:59:15;10.02;;;6.30;;
12774;SDS011;6451;42.630;23.382;2023-07-13T04:01:42;7.40;;;5.90;;
12774;SDS011;6451;42.630;23.382;2023-07-13T04:04:10;6.35;;;5.75;;
12774;SDS011;6451;42.630;23.382;2023-07-13T04:06:37;6.70;;;6.00;;
12774;SDS011;6451;42.630;23.382;2023-07-13T04:09:04;7.25;;;5.60;;
12774;SDS011;6451;42.630;23.382;2023-07-13T04:11:32;5.97;;;5.40;;
12774;SDS011;6451;42.630;23.382;2023-07-13T04:14:03;6.80;;;5.50;;
12774;SDS011;6451;42.630;23.382;2023-07-13T04:16:32;6.55;;;5.53;;
12774;SDS011;6451;42.630;23.382;2023-07-13T04:18:58;7.13;;;5.90;;
12774;SDS011;6451;42.630;23.382;2023-07-13T04:21:26;8.63;;;6.25;;
12774;SDS011;6451;42.630;23.382;2023-07-13T04:23:53;9.05;;;6.43;;
12774;SDS011;6451;42.630;23.382;2023-07-13T04:26:20;8.57;;;5.80;;
12774;SDS011;6451;42.630;23.382;2023-07-13T04:28:48;7.90;;;5.47;;
12774;SDS011;6451;42.630;23.382;2023-07-13T04:31:17;7.47;;;5.60;;
12774;SDS011;6451;42.630;23.382;2023-07-13T04:33:45;8.70;;;5.55;;
12774;SDS011;6451;42.630;23.382;2023-07-13T04:36:12;7.13;;;5.78;;
12774;SDS011;6451;42.630;23.382;2023-07-13T04:38:39;7.38;;;6.10;;
12774;SDS011;6451;42.630;23.382;2023-07-13T04:41:06;9.70;;;6.30;;
12774;SDS011;6451;42.630;23.382;2023-07-13T04:43:34;10.25;;;6.25;;
12774;SDS011;6451;42.630;23.382;2023-07-13T04:46:05;7.07;;;6.03;;
12774;SDS011;6451;42.630;23.382;2023-07-13T04:48:33;8.68;;;5.88;;
12774;SDS011;6451;42.630;23.382;2023-07-13T04:51:01;9.00;;;6.07;;
12774;SDS011;6451;42.630;23.382;2023-07-13T04:53:28;9.20;;;6.00;;
12774;SDS011;6451;42.630;23.382;2023-07-13T04:55:56;6.72;;;5.95;;
12774;SDS011;6451;42.630;23.382;2023-07-13T04:58:24;8.07;;;6.30;;
12774;SDS011;6451;42.630;23.382;2023-07-13T05:00:52;6.88;;;6.25;;
12774;SDS011;6451;42.630;23.382;2023-07-13T05:03:20;6.95;;;6.25;;
12774;SDS011;6451;42.630;23.382;2023-07-13T05:05:55;9.68;;;6.47;;
12774;SDS011;6451;42.630;23.382;2023-07-13T05:08:24;8.27;;;6.32;;
12774;SDS011;6451;42.630;23.382;2023-07-13T05:10:51;7.53;;;5.82;;
12774;SDS011;6451;42.630;23.382;2023-07-13T05:13:19;9.27;;;5.78;;
12774;SDS011;6451;42.630;23.382;2023-07-13T05:15:47;7.63;;;6.40;;
12774;SDS011;6451;42.630;23.382;2023-07-13T05:18:21;7.63;;;6.03;;
12774;SDS011;6451;42.630;23.382;2023-07-13T05:20:56;7.53;;;6.28;;
12774;SDS011;6451;42.630;23.382;2023-07-13T05:23:28;6.82;;;6.10;;
12774;SDS011;6451;42.630;23.382;2023-07-13T05:25:55;6.82;;;5.90;;
12774;SDS011;6451;42.630;23.382;2023-07-13T05:28:22;9.43;;;6.28;;
12774;SDS011;6451;42.630;23.382;2023-07-13T05:30:50;6.68;;;6.00;;
12774;SDS011;6451;42.630;23.382;2023-07-13T05:33:17;9.27;;;6.32;;
12774;SDS011;6451;42.630;23.382;2023-07-13T05:35:44;7.32;;;6.40;;
12774;SDS011;6451;42.630;23.382;2023-07-13T05:38:12;7.63;;;6.93;;
12774;SDS011;6451;42.630;23.382;2023-07-13T05:40:39;10.02;;;6.85;;
12774;SDS011;6451;42.630;23.382;2023-07-13T05:43:08;8.95;;;6.57;;
12774;SDS011;6451;42.630;23.382;2023-07-13T05:45:35;7.20;;;6.50;;
12774;SDS011;6451;42.630;23.382;2023-07-13T05:48:02;10.20;;;6.88;;
12774;SDS011;6451;42.630;23.382;2023-07-13T05:50:29;10.18;;;7.38;;
12774;SDS011;6451;42.630;23.382;2023-07-13T05:52:57;8.35;;;6.78;;
12774;SDS011;6451;42.630;23.382;2023-07-13T05:55:26;11.32;;;7.18;;
12774;SDS011;6451;42.630;23.382;2023-07-13T05:57:53;12.07;;;7.10;;
12774;SDS011;6451;42.630;23.382;2023-07-13T06:00:20;8.00;;;6.50;;
12774;SDS011;6451;42.630;23.382;2023-07-13T06:02:48;10.05;;;6.88;;
12774;SDS011;6451;42.630;23.382;2023-07-13T06:05:15;11.32;;;7.30;;
12774;SDS011;6451;42.630;23.382;2023-07-13T06:07:42;13.18;;;7.00;;
12774;SDS011;6451;42.630;23.382;2023-07-13T06:10:09;10.18;;;7.15;;
12774;SDS011;6451;42.630;23.382;2023-07-13T06:12:37;7.40;;;6.43;;
12774;SDS011;6451;42.630;23.382;2023-07-13T06:15:05;8.35;;;6.78;;
12774;SDS011;6451;42.630;23.382;2023-07-13T06:17:33;11.75;;;7.05;;
12774;SDS011;6451;42.630;23.382;2023-07-13T06:19:59;10.18;;;7.53;;
12774;SDS011;6451;42.630;23.382;2023-07-13T06:22:26;9.98;;;6.97;;
12774;SDS011;6451;42.630;23.382;2023-07-13T06:24:53;12.57;;;6.88;;
12774;SDS011;6451;42.630;23.382;2023-07-13T06:27:22;7.78;;;7.00;;
12774;SDS011;6451;42.630;23.382;2023-07-13T06:29:51;8.80;;;6.60;;
12774;SDS011;6451;42.630;23.382;2023-07-13T06:32:18;10.63;;;6.68;;
12774;SDS011;6451;42.630;23.382;2023-07-13T06:34:45;6.80;;;6.15;;
12774;SDS011;6451;42.630;23.382;2023-07-13T06:37:12;9.48;;;6.63;;
12774;SDS011;6451;42.630;23.382;2023-07-13T06:39:39;7.65;;;6.90;;
12774;SDS011;6451;42.630;23.382;2023-07-13T06:42:06;8.10;;;6.90;;
12774;SDS011;6451;42.630;23.382;2023-07-13T06:44:33;7.00;;;6.40;;
12774;SDS011;6451;42.630;23.382;2023-07-13T06:47:01;8.05;;;6.88;;
12774;SDS011;6451;42.630;23.382;2023-07-13T06:49:29;9.40;;;6.35;;
12774;SDS011;6451;42.630;23.382;2023-07-13T06:51:55;8.82;;;7.30;;
12774;SDS011;6451;42.630;23.382;2023-07-13T06:54:22;9.65;;;6.82;;
12774;SDS011;6451;42.630;23.382;2023-07-13T06:56:50;8.85;;;6.97;;
12774;SDS011;6451;42.630;23.382;2023-07-13T06:59:17;7.88;;;7.15;;
12774;SDS011;6451;42.630;23.382;2023-07-13T07:01:44;8.70;;;7.32;;
12774;SDS011;6451;42.630;23.382;2023-07-13T07:04:12;8.75;;;6.97;;
12774;SDS011;6451;42.630;23.382;2023-07-13T07:06:40;7.85;;;6.95;;
12774;SDS011;6451;42.630;23.382;2023-07-13T07:09:07;9.63;;;7.20;;
12774;SDS011;6451;42.630;23.382;2023-07-13T07:11:35;9.50;;;6.63;;
12774;SDS011;6451;42.630;23.382;2023-07-13T07:14:02;11.27;;;6.93;;
12774;SDS011;6451;42.630;23.382;2023-07-13T07:16:29;12.02;;;7.68;;
12774;SDS011;6451;42.630;23.382;2023-07-13T07:18:56;10.05;;;6.90;;
12774;SDS011;6451;42.630;23.382;2023-07-13T07:21:24;11.30;;;6.95;;
12774;SDS011;6451;42.630;23.382;2023-07-13T07:23:52;10.18;;;7.32;;
12774;SDS011;6451;42.630;23.382;2023-07-13T07:26:19;12.68;;;6.80;;
12774;SDS011;6451;42.630;23.382;2023-07-13T07:28:46;10.43;;;7.07;;
12774;SDS011;6451;42.630;23.382;2023-07-13T07:31:13;23.30;;;7.43;;
12774;SDS011;6451;42.630;23.382;2023-07-13T07:33:40;13.90;;;6.93;;
12774;SDS011;6451;42.630;23.382;2023-07-13T07:36:07;11.80;;;6.97;;
12774;SDS011;6451;42.630;23.382;2023-07-13T07:38:35;12.93;;;6.97;;
12774;SDS011;6451;42.630;23.382;2023-07-13T07:41:02;10.45;;;6.72;;
12774;SDS011;6451;42.630;23.382;2023-07-13T07:43:30;10.18;;;6.78;;
12774;SDS011;6451;42.630;23.382;2023-07-13T07:45:57;11.15;;;7.75;;
12774;SDS011;6451;42.630;23.382;2023-07-13T07:48:24;10.48;;;6.82;;
12774;SDS011;6451;42.630;23.382;2023-07-13T07:50:50;12.70;;;7.05;;
12774;SDS011;6451;42.630;23.382;2023-07-13T07:53:18;9.60;;;6.53;;
12774;SDS011;6451;42.630;23.382;2023-07-13T07:55:46;9.98;;;7.45;;
12774;SDS011;6451;42.630;23.382;2023-07-13T07:58:14;12.45;;;7.13;;
12774;SDS011;6451;42.630;23.382;2023-07-13T08:00:40;10.45;;;7.88;;
12774;SDS011;6451;42.630;23.382;2023-07-13T08:03:07;11.07;;;7.88;;
12774;SDS011;6451;42.630;23.382;2023-07-13T08:05:35;10.25;;;8.10;;
12774;SDS011;6451;42.630;23.382;2023-07-13T08:08:02;9.52;;;7.65;;
12774;SDS011;6451;42.630;23.382;2023-07-13T08:10:29;10.80;;;7.63;;
12774;SDS011;6451;42.630;23.382;2023-07-13T08:12:57;10.00;;;7.25;;
12774;SDS011;6451;42.630;23.382;2023-07-13T08:15:25;8.93;;;7.25;;
12774;SDS011;6451;42.630;23.382;2023-07-13T08:17:51;13.25;;;7.90;;
12774;SDS011;6451;42.630;23.382;2023-07-13T08:20:18;10.95;;;7.57;;
12774;SDS011;6451;42.630;23.382;2023-07-13T08:22:45;9.50;;;7.28;;
12774;SDS011;6451;42.630;23.382;2023-07-13T08:25:12;10.07;;;7.15;;
12774;SDS011;6451;42.630;23.382;2023-07-13T08:27:39;10.50;;;7.72;;
12774;SDS011;6451;42.630;23.382;2023-07-13T08:30:08;8.85;;;7.35;;
12774;SDS011;6451;42.630;23.382;2023-07-13T08:32:36;9.48;;;7.32;;
12774;SDS011;6451;42.630;23.382;2023-07-13T08:35:03;7.88;;;6.97;;
12774;SDS011;6451;42.630;23.382;2023-07-13T08:37:31;10.35;;;7.22;;
12774;SDS011;6451;42.630;23.382;2023-07-13T08:39:58;8.68;;;7.13;;
12774;SDS011;6451;42.630;23.382;2023-07-13T08:42:31;9.82;;;7.50;;
12774;SDS011;6451;42.630;23.382;2023-07-13T08:45:17;8.38;;;7.47;;
12774;SDS011;6451;42.630;23.382;2023-07-13T08:47:49;8.52;;;7.25;;
12774;SDS011;6451;42.630;23.382;2023-07-13T08:50:20;10.95;;;7.28;;
12774;SDS011;6451;42.630;23.382;2023-07-13T08:52:51;8.50;;;7.07;;
12774;SDS011;6451;42.630;23.382;2023-07-13T08:55:20;8.13;;;7.05;;
12774;SDS011;6451;42.630;23.382;2023-07-13T08:57:53;9.00;;;7.18;;
12774;SDS011;6451;42.630;23.382;2023-07-13T09:00:25;8.13;;;6.93;;
12774;SDS011;6451;42.630;23.382;2023-07-13T09:03:07;9.93;;;7.93;;
12774;SDS011;6451;42.630;23.382;2023-07-13T09:05:46;9.50;;;7.60;;
12774;SDS011;6451;42.630;23.382;2023-07-13T09:08:31;8.30;;;7.50;;
12774;SDS011;6451;42.630;23.382;2023-07-13T09:11:11;10.90;;;7.75;;
12774;SDS011;6451;42.630;23.382;2023-07-13T09:13:50;11.70;;;7.22;;
12774;SDS011;6451;42.630;23.382;2023-07-13T09:16:26;9.95;;;6.97;;
12774;SDS011;6451;42.630;23.382;2023-07-13T09:18:54;11.38;;;7.38;;
12774;SDS011;6451;42.630;23.382;2023-07-13T09:21:28;14.85;;;7.20;;
12774;SDS011;6451;42.630;23.382;2023-07-13T09:26:32;11.02;;;7.78;;
12774;SDS011;6451;42.630;23.382;2023-07-13T09:29:03;14.77;;;7.75;;
12774;SDS011;6451;42.630;23.382;2023-07-13T09:31:41;12.25;;;7.78;;
12774;SDS011;6451;42.630;23.382;2023-07-13T09:34:15;11.05;;;7.40;;
12774;SDS011;6451;42.630;23.382;2023-07-13T09:36:43;11.75;;;7.28;;
12774;SDS011;6451;42.630;23.382;2023-07-13T09:39:12;11.15;;;7.10;;
12774;SDS011;6451;42.630;23.382;2023-07-13T09:41:43;10.35;;;7.68;;
12774;SDS011;6451;42.630;23.382;2023-07-13T09:44:18;9.60;;;7.50;;
12774;SDS011;6451;42.630;23.382;2023-07-13T09:46:58;10.80;;;8.13;;
12774;SDS011;6451;42.630;23.382;2023-07-13T09:49:27;13.70;;;8.05;;
12774;SDS011;6451;42.630;23.382;2023-07-13T09:51:59;10.65;;;7.55;;
12774;SDS011;6451;42.630;23.382;2023-07-13T09:54:29;11.02;;;7.57;;
12774;SDS011;6451;42.630;23.382;2023-07-13T09:57:00;17.40;;;7.28;;
12774;SDS011;6451;42.630;23.382;2023-07-13T09:59:29;14.18;;;8.00;;
12774;SDS011;6451;42.630;23.382;2023-07-13T10:01:58;12.98;;;7.80;;
12774;SDS011;6451;42.630;23.382;2023-07-13T10:04:27;14.82;;;7.70;;
12774;SDS011;6451;42.630;23.382;2023-07-13T10:07:04;10.13;;;7.43;;
12774;SDS011;6451;42.630;23.382;2023-07-13T10:09:32;11.15;;;7.70;;
12774;SDS011;6451;42.630;23.382;2023-07-13T10:11:59;11.73;;;7.75;;
12774;SDS011;6451;42.630;23.382;2023-07-13T10:14:27;10.52;;;7.80;;
12774;SDS011;6451;42.630;23.382;2023-07-13T10:16:57;9.45;;;7.75;;
12774;SDS011;6451;42.630;23.382;2023-07-13T10:19:27;13.18;;;8.05;;
12774;SDS011;6451;42.630;23.382;2023-07-13T10:21:58;10.35;;;7.72;;
12774;SDS011;6451;42.630;23.382;2023-07-13T10:24:30;13.05;;;7.40;;
12774;SDS011;6451;42.630;23.382;2023-07-13T10:27:01;10.13;;;7.30;;
12774;SDS011;6451;42.630;23.382;2023-07-13T10:29:34;10.70;;;7.90;;
12774;SDS011;6451;42.630;23.382;2023-07-13T10:32:07;14.43;;;7.65;;
12774;SDS011;6451;42.630;23.382;2023-07-13T10:34:37;13.45;;;7.57;;
12774;SDS011;6451;42.630;23.382;2023-07-13T10:37:04;14.60;;;7.80;;
12774;SDS011;6451;42.630;23.382;2023-07-13T10:39:33;14.38;;;8.00;;
12774;SDS011;6451;42.630;23.382;2023-07-13T10:42:03;10.15;;;7.70;;
12774;SDS011;6451;42.630;23.382;2023-07-13T10:44:33;10.52;;;7.05;;
12774;SDS011;6451;42.630;23.382;2023-07-13T10:47:01;10.13;;;7.18;;
12774;SDS011;6451;42.630;23.382;2023-07-13T10:49:33;10.32;;;7.55;;
12774;SDS011;6451;42.630;23.382;2023-07-13T10:52:02;11.60;;;7.65;;
12774;SDS011;6451;42.630;23.382;2023-07-13T10:54:30;11.98;;;7.70;;
12774;SDS011;6451;42.630;23.382;2023-07-13T10:57:13;11.07;;;7.50;;
12774;SDS011;6451;42.630;23.382;2023-07-13T10:59:43;16.13;;;7.75;;
12774;SDS011;6451;42.630;23.382;2023-07-13T11:02:15;10.70;;;7.63;;
12774;SDS011;6451;42.630;23.382;2023-07-13T11:04:54;9.75;;;7.00;;
12774;SDS011;6451;42.630;23.382;2023-07-13T11:07:24;13.80;;;6.93;;
12774;SDS011;6451;42.630;23.382;2023-07-13T11:09:53;12.02;;;7.32;;
12774;SDS011;6451;42.630;23.382;2023-07-13T11:12:48;9.20;;;7.40;;
12774;SDS011;6451;42.630;23.382;2023-07-13T11:15:27;10.32;;;7.20;;
12774;SDS011;6451;42.630;23.382;2023-07-13T11:17:59;9.77;;;7.25;;
12774;SDS011;6451;42.630;23.382;2023-07-13T11:20:38;12.13;;;7.78;;
12774;SDS011;6451;42.630;23.382;2023-07-13T11:23:07;14.68;;;7.30;;
12774;SDS011;6451;42.630;23.382;2023-07-13T11:25:56;15.23;;;7.68;;
12774;SDS011;6451;42.630;23.382;2023-07-13T11:28:25;13.10;;;6.93;;
12774;SDS011;6451;42.630;23.382;2023-07-13T11:31:02;11.45;;;7.47;;
12774;SDS011;6451;42.630;23.382;2023-07-13T11:33:51;16.45;;;6.95;;
12774;SDS011;6451;42.630;23.382;2023-07-13T11:36:21;12.82;;;7.15;;
12774;SDS011;6451;42.630;23.382;2023-07-13T11:38:55;16.38;;;8.13;;
12774;SDS011;6451;42.630;23.382;2023-07-13T11:41:27;11.90;;;7.35;;
12774;SDS011;6451;42.630;23.382;2023-07-13T11:44:11;12.70;;;6.95;;
12774;SDS011;6451;42.630;23.382;2023-07-13T11:46:43;11.20;;;6.82;;
12774;SDS011;6451;42.630;23.382;2023-07-13T11:49:13;11.10;;;7.22;;
12774;SDS011;6451;42.630;23.382;2023-07-13T11:51:43;11.23;;;6.72;;
12774;SDS011;6451;42.630;23.382;2023-07-13T11:54:19;10.00;;;7.32;;
12774;SDS011;6451;42.630;23.382;2023-07-13T11:56:51;9.25;;;7.00;;
12774;SDS011;6451;42.630;23.382;2023-07-13T11:59:20;9.77;;;6.65;;
12774;SDS011;6451;42.630;23.382;2023-07-13T12:01:50;9.07;;;6.60;;
12774;SDS011;6451;42.630;23.382;2023-07-13T12:04:21;14.30;;;6.85;;
12774;SDS011;6451;42.630;23.382;2023-07-13T12:06:58;9.75;;;6.45;;
12774;SDS011;6451;42.630;23.382;2023-07-13T12:09:33;8.25;;;6.53;;
12774;SDS011;6451;42.630;23.382;2023-07-13T12:12:01;13.75;;;6.47;;
12774;SDS011;6451;42.630;23.382;2023-07-13T12:14:29;11.13;;;6.40;;
12774;SDS011;6451;42.630;23.382;2023-07-13T12:17:00;11.00;;;7.18;;
12774;SDS011;6451;42.630;23.382;2023-07-13T12:19:27;9.43;;;6.68;;
12774;SDS011;6451;42.630;23.382;2023-07-13T12:21:56;11.55;;;6.82;;
12774;SDS011;6451;42.630;23.382;2023-07-13T12:24:25;11.00;;;6.50;;
12774;SDS011;6451;42.630;23.382;2023-07-13T12:26:53;11.50;;;6.35;;
12774;SDS011;6451;42.630;23.382;2023-07-13T12:29:21;8.88;;;6.57;;
12774;SDS011;6451;42.630;23.382;2023-07-13T12:31:49;10.80;;;6.78;;
12774;SDS011;6451;42.630;23.382;2023-07-13T12:34:18;10.38;;;6.35;;
12774;SDS011;6451;42.630;23.382;2023-07-13T12:36:47;8.63;;;6.70;;
12774;SDS011;6451;42.630;23.382;2023-07-13T12:39:18;9.55;;;6.72;;
12774;SDS011;6451;42.630;23.382;2023-07-13T12:41:47;12.70;;;6.93;;
12774;SDS011;6451;42.630;23.382;2023-07-13T12:44:16;8.35;;;6.68;;
12774;SDS011;6451;42.630;23.382;2023-07-13T12:46:55;11.52;;;6.78;;
12774;SDS011;6451;42.630;23.382;2023-07-13T12:49:26;9.25;;;6.30;;
12774;SDS011;6451;42.630;23.382;2023-07-13T12:51:58;11.18;;;6.53;;
12774;SDS011;6451;42.630;23.382;2023-07-13T12:54:29;10.07;;;6.72;;
12774;SDS011;6451;42.630;23.382;2023-07-13T12:56:57;10.57;;;6.32;;
12774;SDS011;6451;42.630;23.382;2023-07-13T12:59:29;13.60;;;6.68;;
12774;SDS011;6451;42.630;23.382;2023-07-13T13:02:01;10.48;;;6.47;;
12774;SDS011;6451;42.630;23.382;2023-07-13T13:04:30;11.60;;;6.43;;
12774;SDS011;6451;42.630;23.382;2023-07-13T13:07:00;9.23;;;6.75;;
12774;SDS011;6451;42.630;23.382;2023-07-13T13:09:30;10.30;;;6.50;;
12774;SDS011;6451;42.630;23.382;2023-07-13T13:11:57;8.43;;;6.38;;
12774;SDS011;6451;42.630;23.382;2023-07-13T13:14:24;10.52;;;6.40;;
12774;SDS011;6451;42.630;23.382;2023-07-13T13:16:52;8.65;;;6.18;;
12774;SDS011;6451;42.630;23.382;2023-07-13T13:19:21;12.02;;;6.32;;
12774;SDS011;6451;42.630;23.382;2023-07-13T13:21:50;9.48;;;7.00;;
12774;SDS011;6451;42.630;23.382;2023-07-13T13:24:19;12.20;;;6.07;;
12774;SDS011;6451;42.630;23.382;2023-07-13T13:26:49;9.93;;;6.40;;
12774;SDS011;6451;42.630;23.382;2023-07-13T13:29:19;12.70;;;6.93;;
12774;SDS011;6451;42.630;23.382;2023-07-13T13:31:49;11.40;;;6.28;;
12774;SDS011;6451;42.630;23.382;2023-07-13T13:34:16;11.73;;;6.35;;
12774;SDS011;6451;42.630;23.382;2023-07-13T13:36:44;7.70;;;6.05;;
12774;SDS011;6451;42.630;23.382;2023-07-13T13:39:19;12.98;;;6.05;;
12774;SDS011;6451;42.630;23.382;2023-07-13T13:41:49;10.02;;;5.93;;
12774;SDS011;6451;42.630;23.382;2023-07-13T13:44:17;12.35;;;5.88;;
12774;SDS011;6451;42.630;23.382;2023-07-13T13:46:45;11.90;;;5.70;;
12774;SDS011;6451;42.630;23.382;2023-07-13T13:49:15;8.75;;;5.80;;
12774;SDS011;6451;42.630;23.382;2023-07-13T13:51:44;10.73;;;5.25;;
12774;SDS011;6451;42.630;23.382;2023-07-13T13:54:12;9.25;;;5.50;;
12774;SDS011;6451;42.630;23.382;2023-07-13T13:56:41;11.80;;;6.00;;
12774;SDS011;6451;42.630;23.382;2023-07-13T13:59:12;8.95;;;5.63;;
12774;SDS011;6451;42.630;23.382;2023-07-13T14:01:40;10.02;;;5.75;;
12774;SDS011;6451;42.630;23.382;2023-07-13T14:04:09;12.32;;;5.97;;
12774;SDS011;6451;42.630;23.382;2023-07-13T14:06:42;11.65;;;5.53;;
12774;SDS011;6451;42.630;23.382;2023-07-13T14:09:11;12.80;;;6.30;;
12774;SDS011;6451;42.630;23.382;2023-07-13T14:11:40;6.95;;;5.82;;
12774;SDS011;6451;42.630;23.382;2023-07-13T14:14:09;11.68;;;6.07;;
12774;SDS011;6451;42.630;23.382;2023-07-13T14:16:45;11.65;;;6.45;;
12774;SDS011;6451;42.630;23.382;2023-07-13T14:19:18;13.68;;;5.78;;
12774;SDS011;6451;42.630;23.382;2023-07-13T14:21:45;10.00;;;6.50;;
12774;SDS011;6451;42.630;23.382;2023-07-13T14:24:15;9.45;;;5.70;;
12774;SDS011;6451;42.630;23.382;2023-07-13T14:26:42;12.00;;;5.97;;
12774;SDS011;6451;42.630;23.382;2023-07-13T14:29:11;12.40;;;6.20;;
12774;SDS011;6451;42.630;23.382;2023-07-13T14:31:42;11.98;;;5.57;;
12774;SDS011;6451;42.630;23.382;2023-07-13T14:34:11;9.98;;;5.30;;
12774;SDS011;6451;42.630;23.382;2023-07-13T14:36:41;9.15;;;5.78;;
12774;SDS011;6451;42.630;23.382;2023-07-13T14:39:12;9.18;;;5.70;;
12774;SDS011;6451;42.630;23.382;2023-07-13T14:41:41;12.10;;;5.80;;
12774;SDS011;6451;42.630;23.382;2023-07-13T14:44:11;16.83;;;6.40;;
12774;SDS011;6451;42.630;23.382;2023-07-13T14:46:40;16.48;;;6.07;;
12774;SDS011;6451;42.630;23.382;2023-07-13T14:49:11;9.75;;;6.03;;
12774;SDS011;6451;42.630;23.382;2023-07-13T14:51:44;8.02;;;6.05;;
12774;SDS011;6451;42.630;23.382;2023-07-13T14:54:11;11.85;;;5.70;;
12774;SDS011;6451;42.630;23.382;2023-07-13T14:56:38;10.35;;;5.65;;
12774;SDS011;6451;42.630;23.382;2023-07-13T14:59:07;8.20;;;5.70;;